Time;durP1;ratioP1;P1;durP2;ratioP2;P2;SDS_P1;SDS_P2;PMS_P1;PMS_P2;Temp;Humidity;BMP_temperature;BMP_pressure;BME280_temperature;BME280_humidity;BME280_pressure;Samples;Min_cycle;Max_cycle;Signal;HPM_P1;HPM_P2
2022/12/18 00:01:56;;;;;;;;;8.60;8.60;;;;;;;;5228125;28;8783;-70
2022/12/18 00:04:27;;;;;;;;;7.40;7.40;;;;;;;;5244565;28;8925;-70
2022/12/18 00:06:58;;;;;;;;;8.60;7.00;;;;;;;;5236954;28;8829;-71
2022/12/18 00:09:48;;;;;;;;;5.80;5.80;;;;;;;;5265369;28;9529;-70
2022/12/18 00:12:38;;;;;;;;;9.00;9.00;;;;;;;;5248275;28;8783;-70
2022/12/18 00:15:09;;;;;;;;;7.00;7.00;;;;;;;;5247997;28;8760;-70
2022/12/18 00:17:40;;;;;;;;;11.00;10.20;;;;;;;;5247642;28;8907;-70
2022/12/18 00:20:11;;;;;;;;;6.60;6.60;;;;;;;;5247977;28;8779;-70
2022/12/18 00:22:42;;;;;;;;;8.20;8.20;;;;;;;;5234861;28;8894;-70
2022/12/18 00:25:14;;;;;;;;;0.00;0.00;;;;;;;;5247879;28;8949;-70
2022/12/18 00:27:45;;;;;;;;;9.00;9.00;;;;;;;;5248092;28;8790;-71
2022/12/18 00:30:18;;;;;;;;;24.20;24.20;;;;;;;;5264552;28;8771;-69
2022/12/18 00:32:49;;;;;;;;;8.00;7.20;;;;;;;;5264564;28;8786;-69
2022/12/18 00:35:20;;;;;;;;;7.80;7.80;;;;;;;;5260722;28;8814;-69
2022/12/18 00:37:51;;;;;;;;;9.00;9.00;;;;;;;;5247651;28;9497;-69
2022/12/18 00:40:23;;;;;;;;;6.40;6.40;;;;;;;;5231063;28;9485;-69
2022/12/18 00:42:57;;;;;;;;;6.00;6.00;;;;;;;;5247665;28;8787;-69
2022/12/18 00:45:30;;;;;;;;;4.80;4.80;;;;;;;;5231074;28;8791;-69
2022/12/18 00:48:01;;;;;;;;;9.00;8.80;;;;;;;;5214290;28;8787;-69
2022/12/18 00:50:33;;;;;;;;;6.00;6.00;;;;;;;;5215225;28;8802;-71
2022/12/18 00:53:05;;;;;;;;;3.00;3.00;;;;;;;;5268415;28;8815;-71
2022/12/18 00:55:55;;;;;;;;;3.00;3.00;;;;;;;;5266507;28;8824;-71
2022/12/18 00:58:26;;;;;;;;;15.20;13.40;;;;;;;;5251060;28;8813;-71
2022/12/18 01:00:57;;;;;;;;;7.80;6.80;;;;;;;;5251356;28;8903;-71
2022/12/18 01:03:28;;;;;;;;;19.40;16.00;;;;;;;;5269492;28;9503;-71
2022/12/18 01:05:59;;;;;;;;;30.40;29.00;;;;;;;;5233156;28;8823;-71
2022/12/18 01:08:30;;;;;;;;;30.60;30.60;;;;;;;;5230485;28;9576;-71
2022/12/18 01:11:08;;;;;;;;;7.40;7.40;;;;;;;;5230481;28;8791;-71
2022/12/18 01:13:40;;;;;;;;;6.40;6.40;;;;;;;;5230544;28;9494;-71
2022/12/18 01:16:12;;;;;;;;;5.40;5.40;;;;;;;;5248240;28;8815;-71
2022/12/18 01:18:43;;;;;;;;;10.00;10.00;;;;;;;;5214344;28;8830;-71
2022/12/18 01:21:15;;;;;;;;;8.60;8.60;;;;;;;;5246745;28;8937;-70
2022/12/18 01:23:47;;;;;;;;;5.20;4.40;;;;;;;;5247809;28;8790;-71
2022/12/18 01:26:18;;;;;;;;;6.60;5.60;;;;;;;;5246883;28;8795;-71
2022/12/18 01:28:49;;;;;;;;;9.40;9.20;;;;;;;;5246506;28;8787;-71
2022/12/18 01:31:25;;;;;;;;;9.25;9.25;;;;;;;;5229977;28;8819;-71
2022/12/18 01:33:56;;;;;;;;;7.60;7.20;;;;;;;;5247773;28;9205;-71
2022/12/18 01:36:46;;;;;;;;;12.40;12.40;;;;;;;;5246353;28;8799;-71
2022/12/18 01:39:17;;;;;;;;;15.40;14.60;;;;;;;;5213190;28;8828;-70
2022/12/18 01:42:14;;;;;;;;;15.80;13.00;;;;;;;;5246156;28;8791;-71
2022/12/18 01:44:55;;;;;;;;;19.60;19.60;;;;;;;;5213438;28;8774;-69
2022/12/18 01:47:26;;;;;;;;;10.00;10.00;;;;;;;;5229744;28;8795;-68
2022/12/18 01:49:59;;;;;;;;;11.40;11.20;;;;;;;;5247897;28;8818;-71
2022/12/18 01:52:51;;;;;;;;;16.80;15.40;;;;;;;;5231567;28;8830;-71
2022/12/18 01:55:25;;;;;;;;;7.40;7.40;;;;;;;;5229413;28;9510;-71
2022/12/18 01:57:58;;;;;;;;;9.80;9.80;;;;;;;;5247049;28;8823;-70
2022/12/18 02:00:29;;;;;;;;;7.80;7.80;;;;;;;;5229450;28;8852;-70
2022/12/18 02:03:01;;;;;;;;;6.00;4.40;;;;;;;;5229119;28;8829;-70
2022/12/18 02:05:45;;;;;;;;;9.00;9.00;;;;;;;;5236346;28;8796;-71
2022/12/18 02:08:32;;;;;;;;;9.00;8.60;;;;;;;;5233533;28;8777;-71
2022/12/18 02:11:04;;;;;;;;;11.60;10.40;;;;;;;;5250034;28;8784;-69
2022/12/18 02:13:54;;;;;;;;;12.60;12.20;;;;;;;;5252143;28;8796;-69
2022/12/18 02:16:50;;;;;;;;;9.40;8.80;;;;;;;;5249604;28;8781;-69
2022/12/18 02:19:37;;;;;;;;;14.20;14.20;;;;;;;;5266615;28;8816;-69
2022/12/18 02:22:18;;;;;;;;;14.60;14.60;;;;;;;;5231959;28;8788;-69
2022/12/18 02:24:50;;;;;;;;;7.60;7.60;;;;;;;;5249745;28;8785;-69
2022/12/18 02:27:21;;;;;;;;;11.20;11.20;;;;;;;;5233295;28;8864;-69
2022/12/18 02:29:55;;;;;;;;;6.20;6.20;;;;;;;;5249192;28;9523;-69
2022/12/18 02:32:32;;;;;;;;;7.00;6.80;;;;;;;;5249526;28;8927;-69
2022/12/18 02:35:26;;;;;;;;;5.20;5.20;;;;;;;;5264767;28;8812;-70
2022/12/18 02:38:01;;;;;;;;;5.60;5.60;;;;;;;;5212505;28;8897;-70
2022/12/18 02:40:36;;;;;;;;;14.20;14.20;;;;;;;;5245184;28;8953;-70
2022/12/18 02:43:12;;;;;;;;;9.60;9.60;;;;;;;;5245405;28;8793;-71
2022/12/18 02:45:48;;;;;;;;;9.20;9.20;;;;;;;;5212203;28;8782;-71
2022/12/18 02:48:23;;;;;;;;;14.00;12.20;;;;;;;;5212151;28;8798;-69
2022/12/18 02:50:58;;;;;;;;;8.20;8.20;;;;;;;;5240989;28;8794;-67
2022/12/18 02:53:43;;;;;;;;;15.40;13.40;;;;;;;;5244865;28;8795;-68
2022/12/18 02:56:33;;;;;;;;;6.00;6.00;;;;;;;;5228055;28;8783;-71
2022/12/18 02:59:12;;;;;;;;;24.00;23.60;;;;;;;;5236453;28;8811;-73
2022/12/18 03:02:09;;;;;;;;;12.00;9.40;;;;;;;;5236673;28;9559;-73
2022/12/18 03:04:40;;;;;;;;;6.00;6.00;;;;;;;;5244688;28;8803;-70
2022/12/18 03:07:37;;;;;;;;;11.80;9.60;;;;;;;;5242099;28;8809;-71
2022/12/18 03:10:14;;;;;;;;;4.80;4.80;;;;;;;;5227625;28;8783;-71
2022/12/18 03:12:56;;;;;;;;;10.40;10.40;;;;;;;;5228947;28;8819;-70
2022/12/18 03:15:48;;;;;;;;;6.20;6.20;;;;;;;;5248984;28;8804;-69
2022/12/18 03:18:22;;;;;;;;;5.20;5.20;;;;;;;;5238530;28;8824;-70
2022/12/18 03:20:57;;;;;;;;;9.00;9.00;;;;;;;;5238577;28;8804;-69
2022/12/18 03:23:32;;;;;;;;;12.60;12.60;;;;;;;;5238034;28;8885;-70
2022/12/18 03:26:06;;;;;;;;;9.00;9.00;;;;;;;;5222712;28;8803;-69
2022/12/18 03:29:03;;;;;;;;;10.60;10.60;;;;;;;;5255261;28;8838;-72
2022/12/18 03:31:37;;;;;;;;;23.20;22.00;;;;;;;;5238069;28;8878;-72
2022/12/18 03:34:29;;;;;;;;;22.80;21.60;;;;;;;;5254453;28;8789;-69
2022/12/18 03:37:05;;;;;;;;;13.40;13.40;;;;;;;;5254105;28;8809;-69
2022/12/18 03:39:37;;;;;;;;;0.80;0.00;;;;;;;;5254213;28;8780;-69
2022/12/18 03:42:21;;;;;;;;;4.40;4.40;;;;;;;;5239703;28;8807;-69
2022/12/18 03:45:05;;;;;;;;;6.80;6.20;;;;;;;;5258552;28;8789;-71
2022/12/18 03:47:50;;;;;;;;;10.80;10.80;;;;;;;;5241692;28;8772;-69
2022/12/18 03:50:28;;;;;;;;;7.40;7.40;;;;;;;;5223687;28;8787;-71
2022/12/18 03:53:09;;;;;;;;;6.00;6.00;;;;;;;;5231323;28;8827;-70
2022/12/18 03:55:41;;;;;;;;;6.20;6.20;;;;;;;;5241360;28;8784;-70
2022/12/18 03:58:16;;;;;;;;;13.60;13.60;;;;;;;;5242518;28;8801;-71
2022/12/18 04:01:01;;;;;;;;;12.60;12.00;;;;;;;;5243510;28;8805;-74
2022/12/18 04:03:33;;;;;;;;;6.40;6.40;;;;;;;;5260093;28;8814;-68
2022/12/18 04:06:07;;;;;;;;;15.60;15.00;;;;;;;;5246640;28;9671;-68
2022/12/18 04:08:39;;;;;;;;;15.00;14.20;;;;;;;;5246718;28;8787;-68
2022/12/18 04:11:13;;;;;;;;;78.00;61.00;;;;;;;;5257565;28;8796;-69
2022/12/18 04:13:44;;;;;;;;;35.60;32.20;;;;;;;;5253290;28;8789;-72
2022/12/18 04:16:24;;;;;;;;;82.80;66.00;;;;;;;;5240582;28;8813;-71
2022/12/18 04:18:59;;;;;;;;;52.75;44.50;;;;;;;;5224848;28;8884;-70
2022/12/18 04:21:32;;;;;;;;;93.40;73.60;;;;;;;;5247713;28;8798;-69
2022/12/18 04:24:04;;;;;;;;;44.80;42.40;;;;;;;;5247535;28;8795;-70
2022/12/18 04:26:38;;;;;;;;;67.60;52.80;;;;;;;;5256593;28;8927;-68
2022/12/18 04:29:28;;;;;;;;;48.80;44.60;;;;;;;;5258165;28;8796;-68
2022/12/18 04:31:59;;;;;;;;;8.20;8.20;;;;;;;;5214921;28;8888;-67
2022/12/18 04:34:32;;;;;;;;;17.60;17.60;;;;;;;;5214587;28;9562;-69
2022/12/18 04:37:04;;;;;;;;;23.00;18.80;;;;;;;;5239055;28;8849;-69
2022/12/18 04:39:35;;;;;;;;;1.00;0.00;;;;;;;;5224041;28;8784;-70
2022/12/18 04:42:12;;;;;;;;;12.20;12.20;;;;;;;;5255106;28;8775;-71
2022/12/18 04:45:02;;;;;;;;;13.20;12.40;;;;;;;;5241416;28;8933;-70
2022/12/18 04:47:34;;;;;;;;;12.80;12.40;;;;;;;;5241358;28;8761;-70
2022/12/18 04:50:05;;;;;;;;;19.00;18.40;;;;;;;;5263321;28;8811;-70
2022/12/18 04:52:36;;;;;;;;;10.60;10.60;;;;;;;;5266539;28;8818;-70
2022/12/18 04:55:07;;;;;;;;;17.40;16.80;;;;;;;;5250699;28;9543;-69
2022/12/18 04:57:38;;;;;;;;;21.00;21.00;;;;;;;;5249372;28;8854;-69
2022/12/18 05:00:10;;;;;;;;;9.20;9.20;;;;;;;;5241037;28;8890;-69
2022/12/18 05:02:42;;;;;;;;;31.00;29.40;;;;;;;;5239313;28;8815;-69
2022/12/18 05:05:13;;;;;;;;;0.60;0.60;;;;;;;;5229802;28;8791;-71
2022/12/18 05:08:03;;;;;;;;;19.60;19.60;;;;;;;;5253199;28;8776;-69
2022/12/18 05:10:34;;;;;;;;;49.60;46.60;;;;;;;;5231510;28;8806;-68
2022/12/18 05:13:05;;;;;;;;;33.00;33.00;;;;;;;;5263504;28;8792;-68
2022/12/18 05:15:36;;;;;;;;;12.60;12.60;;;;;;;;5243116;28;9338;-68
2022/12/18 05:18:09;;;;;;;;;14.20;14.20;;;;;;;;5249052;28;8830;-66
2022/12/18 05:20:40;;;;;;;;;22.00;20.20;;;;;;;;5233476;28;8807;-66
2022/12/18 05:23:11;;;;;;;;;15.20;15.20;;;;;;;;5230564;28;8917;-67
2022/12/18 05:25:42;;;;;;;;;29.00;27.80;;;;;;;;5265854;28;9527;-67
2022/12/18 05:28:13;;;;;;;;;26.80;25.20;;;;;;;;5245227;28;8804;-68
2022/12/18 05:31:03;;;;;;;;;18.80;18.20;;;;;;;;5249957;28;8795;-67
2022/12/18 05:33:35;;;;;;;;;31.00;30.60;;;;;;;;5227445;28;8829;-67
2022/12/18 05:36:07;;;;;;;;;21.80;21.80;;;;;;;;5228849;28;8809;-68
2022/12/18 05:38:39;;;;;;;;;16.80;16.00;;;;;;;;5213790;28;8827;-69
2022/12/18 05:41:11;;;;;;;;;25.40;21.20;;;;;;;;5254648;28;8812;-68
2022/12/18 05:43:42;;;;;;;;;16.80;16.80;;;;;;;;5249121;28;8780;-68
2022/12/18 05:46:15;;;;;;;;;14.20;13.40;;;;;;;;5267047;28;8871;-68
2022/12/18 05:49:04;;;;;;;;;10.00;10.00;;;;;;;;5267210;28;8793;-68
2022/12/18 05:51:35;;;;;;;;;11.20;11.20;;;;;;;;5249889;28;8808;-67
2022/12/18 05:54:07;;;;;;;;;25.60;25.20;;;;;;;;5267745;28;8919;-67
2022/12/18 05:56:38;;;;;;;;;24.80;24.40;;;;;;;;5265824;28;8785;-68
2022/12/18 05:59:09;;;;;;;;;24.00;24.00;;;;;;;;5233359;28;8873;-68
2022/12/18 06:01:43;;;;;;;;;13.40;13.40;;;;;;;;5266610;28;8832;-68
2022/12/18 06:04:14;;;;;;;;;17.00;17.00;;;;;;;;5232146;28;8792;-67
2022/12/18 06:06:45;;;;;;;;;17.20;17.20;;;;;;;;5266054;28;8776;-67
2022/12/18 06:09:35;;;;;;;;;21.40;21.40;;;;;;;;5252173;28;8818;-67
2022/12/18 06:12:24;;;;;;;;;15.20;15.00;;;;;;;;5246855;28;9551;-69
2022/12/18 06:15:14;;;;;;;;;11.80;10.20;;;;;;;;5245327;28;8933;-68
2022/12/18 06:17:45;;;;;;;;;15.00;15.00;;;;;;;;5228669;28;8815;-67
2022/12/18 06:20:16;;;;;;;;;14.80;13.40;;;;;;;;5257310;28;9527;-68
2022/12/18 06:22:49;;;;;;;;;22.60;22.60;;;;;;;;5249939;28;8776;-68
2022/12/18 06:25:40;;;;;;;;;15.00;14.00;;;;;;;;5266537;28;8807;-66
2022/12/18 06:28:13;;;;;;;;;28.60;24.40;;;;;;;;5229106;28;8849;-67
2022/12/18 06:30:48;;;;;;;;;86.75;64.75;;;;;;;;5250036;28;8914;-69
2022/12/18 06:33:20;;;;;;;;;32.60;30.80;;;;;;;;5222741;28;8801;-67
2022/12/18 06:35:52;;;;;;;;;15.60;15.00;;;;;;;;5244609;28;8888;-67
2022/12/18 06:38:23;;;;;;;;;24.20;22.40;;;;;;;;5246327;28;8807;-67
2022/12/18 06:40:57;;;;;;;;;16.00;16.00;;;;;;;;5245320;28;8820;-67
2022/12/18 06:43:28;;;;;;;;;11.20;10.60;;;;;;;;5245518;28;8783;-67
2022/12/18 06:45:59;;;;;;;;;11.50;11.00;;;;;;;;5245498;28;8818;-68
2022/12/18 06:48:31;;;;;;;;;5.60;4.80;;;;;;;;5237891;28;9973;-67
2022/12/18 06:51:02;;;;;;;;;93.40;71.40;;;;;;;;5246117;28;8890;-68
2022/12/18 06:53:33;;;;;;;;;89.80;66.00;;;;;;;;5211627;28;8905;-67
2022/12/18 06:56:07;;;;;;;;;21.60;20.80;;;;;;;;5212798;28;8807;-68
2022/12/18 06:58:39;;;;;;;;;37.20;35.40;;;;;;;;5244954;28;8818;-68
2022/12/18 07:01:11;;;;;;;;;19.80;19.80;;;;;;;;5245424;28;8795;-68
2022/12/18 07:04:01;;;;;;;;;24.80;23.60;;;;;;;;5248524;28;8922;-68
2022/12/18 07:06:50;;;;;;;;;19.20;18.80;;;;;;;;5245313;28;8779;-67
2022/12/18 07:09:21;;;;;;;;;15.60;15.20;;;;;;;;5245032;28;9517;-68
2022/12/18 07:11:52;;;;;;;;;21.75;21.75;;;;;;;;5245190;28;8811;-68
2022/12/18 07:14:23;;;;;;;;;31.60;27.20;;;;;;;;5245790;28;10179;-67
2022/12/18 07:16:55;;;;;;;;;34.20;30.00;;;;;;;;5248752;28;9603;-66
2022/12/18 07:19:26;;;;;;;;;21.40;20.40;;;;;;;;5240750;28;8818;-67
2022/12/18 07:21:57;;;;;;;;;19.20;19.20;;;;;;;;5232332;28;8771;-67
2022/12/18 07:24:50;;;;;;;;;23.20;22.00;;;;;;;;5249449;28;8836;-67
2022/12/18 07:27:21;;;;;;;;;25.40;22.60;;;;;;;;5250907;28;8792;-67
2022/12/18 07:29:53;;;;;;;;;9.00;8.60;;;;;;;;5251865;28;8808;-67
2022/12/18 07:32:42;;;;;;;;;10.40;10.00;;;;;;;;5256219;28;9653;-68
2022/12/18 07:35:13;;;;;;;;;5.60;5.60;;;;;;;;5271460;28;8776;-67
2022/12/18 07:37:45;;;;;;;;;7.40;7.40;;;;;;;;5270540;28;9535;-68
2022/12/18 07:40:35;;;;;;;;;12.00;12.00;;;;;;;;5269647;28;8823;-68
2022/12/18 07:43:07;;;;;;;;;7.00;7.00;;;;;;;;5253181;28;8804;-67
2022/12/18 07:45:39;;;;;;;;;9.60;9.60;;;;;;;;5231465;28;9554;-68
2022/12/18 07:48:29;;;;;;;;;11.40;11.40;;;;;;;;5265105;28;8795;-68
2022/12/18 07:51:04;;;;;;;;;13.40;13.40;;;;;;;;5231568;28;8834;-68
2022/12/18 07:53:36;;;;;;;;;17.20;17.20;;;;;;;;5231913;28;8819;-67
2022/12/18 07:56:08;;;;;;;;;14.60;14.60;;;;;;;;5231565;28;8791;-67
2022/12/18 07:58:47;;;;;;;;;24.20;24.20;;;;;;;;5218340;28;8929;-67
2022/12/18 08:01:22;;;;;;;;;18.40;18.40;;;;;;;;5266780;28;8779;-68
2022/12/18 08:03:53;;;;;;;;;0.80;0.80;;;;;;;;5249510;28;8786;-68
2022/12/18 08:06:24;;;;;;;;;12.80;11.80;;;;;;;;5265583;28;8811;-67
2022/12/18 08:08:56;;;;;;;;;12.00;11.00;;;;;;;;5231655;28;8791;-67
2022/12/18 08:11:28;;;;;;;;;9.20;9.20;;;;;;;;5215069;28;8809;-67
2022/12/18 08:14:18;;;;;;;;;8.60;7.00;;;;;;;;5234374;28;8815;-67
2022/12/18 08:16:49;;;;;;;;;15.00;15.00;;;;;;;;5252058;28;8800;-66
2022/12/18 08:19:22;;;;;;;;;9.80;9.80;;;;;;;;5251144;28;8861;-66
2022/12/18 08:21:53;;;;;;;;;12.80;12.80;;;;;;;;5267616;28;8787;-68
2022/12/18 08:24:24;;;;;;;;;19.50;18.25;;;;;;;;5250626;28;8911;-67
2022/12/18 08:26:56;;;;;;;;;26.00;25.50;;;;;;;;5266767;28;8880;-66
2022/12/18 08:29:28;;;;;;;;;9.60;9.40;;;;;;;;5267287;28;10387;-67
2022/12/18 08:32:05;;;;;;;;;13.60;13.60;;;;;;;;5268098;28;9545;-67
2022/12/18 08:34:36;;;;;;;;;3.20;3.20;;;;;;;;5267205;28;8788;-68
2022/12/18 08:37:07;;;;;;;;;8.80;7.20;;;;;;;;5247512;28;8850;-68
2022/12/18 08:39:38;;;;;;;;;16.00;14.50;;;;;;;;5248845;28;8826;-68
2022/12/18 08:44:59;;;;;;;;;18.80;16.80;;;;;;;;5269141;28;8857;-66
2022/12/18 08:47:30;;;;;;;;;11.00;9.50;;;;;;;;5250358;28;8795;-68
2022/12/18 08:50:01;;;;;;;;;10.00;10.00;;;;;;;;5229170;28;11506;-67
2022/12/18 08:52:34;;;;;;;;;5.40;5.40;;;;;;;;5243810;28;10235;-68
2022/12/18 08:55:05;;;;;;;;;16.80;16.00;;;;;;;;5249260;28;8810;-68
2022/12/18 08:57:36;;;;;;;;;13.80;12.60;;;;;;;;5246634;28;8822;-68
2022/12/18 09:00:07;;;;;;;;;9.40;9.40;;;;;;;;5246721;28;8791;-66
2022/12/18 09:02:38;;;;;;;;;16.20;15.40;;;;;;;;5246443;28;8940;-68
2022/12/18 09:05:10;;;;;;;;;19.40;19.40;;;;;;;;5229794;28;9983;-68
2022/12/18 09:07:59;;;;;;;;;15.20;14.80;;;;;;;;5265661;28;8796;-68
2022/12/18 09:10:30;;;;;;;;;21.00;20.00;;;;;;;;5263166;28;8822;-68
2022/12/18 09:13:01;;;;;;;;;10.40;9.20;;;;;;;;5231592;28;8803;-67
2022/12/18 09:15:32;;;;;;;;;9.25;9.25;;;;;;;;5246581;28;8815;-67
2022/12/18 09:18:03;;;;;;;;;18.75;18.50;;;;;;;;5259780;28;10693;-67
2022/12/18 09:20:52;;;;;;;;;15.20;15.20;;;;;;;;5255352;28;11625;-68
2022/12/18 09:23:23;;;;;;;;;18.00;16.20;;;;;;;;5231723;28;8810;-67
2022/12/18 09:25:58;;;;;;;;;24.60;24.40;;;;;;;;5255145;28;9508;-67
2022/12/18 09:28:29;;;;;;;;;23.00;22.80;;;;;;;;5266253;28;8788;-67
2022/12/18 09:31:20;;;;;;;;;15.80;15.60;;;;;;;;5256199;28;8795;-68
2022/12/18 09:33:51;;;;;;;;;29.80;29.40;;;;;;;;5246672;28;9518;-67
2022/12/18 09:36:22;;;;;;;;;16.40;16.40;;;;;;;;5246580;28;8877;-67
2022/12/18 09:38:53;;;;;;;;;27.25;26.00;;;;;;;;5247401;28;8834;-68
2022/12/18 09:41:24;;;;;;;;;21.75;21.00;;;;;;;;5229419;28;11503;-67
2022/12/18 09:44:05;;;;;;;;;23.75;23.75;;;;;;;;5255615;28;8818;-69
2022/12/18 09:46:39;;;;;;;;;16.20;15.60;;;;;;;;5247706;28;11494;-69
2022/12/18 09:49:15;;;;;;;;;11.60;11.40;;;;;;;;5256789;28;8781;-69
2022/12/18 09:51:57;;;;;;;;;17.60;17.60;;;;;;;;5255493;28;8812;-69
2022/12/18 09:54:41;;;;;;;;;22.00;22.00;;;;;;;;5252726;28;8819;-68
2022/12/18 09:57:18;;;;;;;;;15.80;15.80;;;;;;;;5251004;28;9682;-67
2022/12/18 10:00:02;;;;;;;;;11.40;11.40;;;;;;;;5250474;28;9534;-69
2022/12/18 10:02:42;;;;;;;;;15.00;15.00;;;;;;;;5248328;28;8827;-69
2022/12/18 10:05:30;;;;;;;;;19.80;17.60;;;;;;;;5221803;28;8803;-68
2022/12/18 10:08:22;;;;;;;;;13.80;13.80;;;;;;;;5229357;28;9541;-69
2022/12/18 10:10:57;;;;;;;;;30.40;30.40;;;;;;;;5234564;28;9553;-69
2022/12/18 10:13:35;;;;;;;;;15.20;14.20;;;;;;;;5246519;28;8786;-67
2022/12/18 10:16:15;;;;;;;;;29.00;28.00;;;;;;;;5249412;28;8808;-69
2022/12/18 10:18:49;;;;;;;;;28.40;27.00;;;;;;;;5227519;28;8829;-68
2022/12/18 10:21:44;;;;;;;;;25.20;25.00;;;;;;;;5237313;28;8795;-68
2022/12/18 10:24:19;;;;;;;;;30.40;28.20;;;;;;;;5229551;28;8799;-69
2022/12/18 10:26:52;;;;;;;;;35.80;33.60;;;;;;;;5232012;28;8791;-68
2022/12/18 10:29:25;;;;;;;;;26.20;26.20;;;;;;;;5245332;28;8807;-68
2022/12/18 10:31:56;;;;;;;;;22.80;20.40;;;;;;;;5245798;28;9595;-68
2022/12/18 10:34:47;;;;;;;;;27.20;26.80;;;;;;;;5238365;28;8804;-68
2022/12/18 10:37:21;;;;;;;;;35.20;34.40;;;;;;;;5232836;28;8964;-68
2022/12/18 10:40:07;;;;;;;;;12.20;11.40;;;;;;;;5263448;28;8796;-68
2022/12/18 10:43:04;;;;;;;;;35.60;35.60;;;;;;;;5249373;28;8827;-71
2022/12/18 10:45:35;;;;;;;;;26.20;24.20;;;;;;;;5219246;28;8795;-70
2022/12/18 10:48:21;;;;;;;;;24.25;23.00;;;;;;;;5236201;28;8823;-70
2022/12/18 10:50:53;;;;;;;;;16.20;16.20;;;;;;;;5254066;28;11538;-68
2022/12/18 10:53:25;;;;;;;;;18.60;18.60;;;;;;;;5254396;28;8817;-68
2022/12/18 10:56:01;;;;;;;;;7.40;7.40;;;;;;;;5237699;28;8775;-68
2022/12/18 10:58:34;;;;;;;;;22.40;21.40;;;;;;;;5254257;28;8827;-67
2022/12/18 11:01:13;;;;;;;;;16.20;16.20;;;;;;;;5240102;28;8795;-68
2022/12/18 11:03:58;;;;;;;;;28.00;27.20;;;;;;;;5240141;28;8923;-69
2022/12/18 11:06:55;;;;;;;;;17.20;17.20;;;;;;;;5237731;28;8869;-69
2022/12/18 11:09:46;;;;;;;;;18.40;17.00;;;;;;;;5241225;28;8753;-69
2022/12/18 11:12:19;;;;;;;;;10.60;10.60;;;;;;;;5222733;28;8913;-69
2022/12/18 11:14:51;;;;;;;;;21.80;20.60;;;;;;;;5236423;28;9481;-68
2022/12/18 11:17:25;;;;;;;;;19.80;18.80;;;;;;;;5256329;28;8813;-68
2022/12/18 11:19:58;;;;;;;;;22.60;22.20;;;;;;;;5250271;28;8803;-69
2022/12/18 11:22:30;;;;;;;;;10.80;10.60;;;;;;;;5245188;28;8795;-69
2022/12/18 11:25:05;;;;;;;;;28.20;26.20;;;;;;;;5212139;28;8815;-69
2022/12/18 11:27:37;;;;;;;;;22.40;21.00;;;;;;;;5228275;28;8787;-69
2022/12/18 11:30:08;;;;;;;;;37.20;29.20;;;;;;;;5229848;28;8811;-68
2022/12/18 11:32:40;;;;;;;;;32.00;29.50;;;;;;;;5246157;28;8787;-69
2022/12/18 11:35:15;;;;;;;;;34.80;27.80;;;;;;;;5261393;28;8802;-70
2022/12/18 11:37:49;;;;;;;;;26.00;26.00;;;;;;;;5261717;28;8810;-69
2022/12/18 11:40:33;;;;;;;;;37.60;37.60;;;;;;;;5261715;28;8791;-69
2022/12/18 11:43:07;;;;;;;;;56.20;48.40;;;;;;;;5261754;28;9534;-69
2022/12/18 11:45:43;;;;;;;;;22.00;21.60;;;;;;;;5220451;28;8860;-70
2022/12/18 11:48:14;;;;;;;;;24.00;24.00;;;;;;;;5261350;28;8787;-69
2022/12/18 11:50:53;;;;;;;;;18.00;18.00;;;;;;;;5244944;28;8775;-69
2022/12/18 11:53:30;;;;;;;;;15.80;15.80;;;;;;;;5245995;28;8815;-70
2022/12/18 11:56:20;;;;;;;;;12.20;12.00;;;;;;;;5246810;28;8793;-69
2022/12/18 11:59:03;;;;;;;;;14.80;14.20;;;;;;;;5227347;28;8819;-70
2022/12/18 12:01:46;;;;;;;;;13.80;13.80;;;;;;;;5228464;28;8779;-69
2022/12/18 12:04:30;;;;;;;;;15.80;15.80;;;;;;;;5232140;28;8802;-70
2022/12/18 12:07:24;;;;;;;;;13.40;13.00;;;;;;;;5248134;28;8814;-71
2022/12/18 12:09:55;;;;;;;;;10.40;10.40;;;;;;;;5240079;28;8854;-68
2022/12/18 12:12:45;;;;;;;;;7.00;7.00;;;;;;;;5257759;28;8795;-68
2022/12/18 12:15:37;;;;;;;;;18.20;15.40;;;;;;;;5264709;28;8805;-68
2022/12/18 12:18:45;;;;;;;;;17.60;15.80;;;;;;;;5248732;28;8823;-67
2022/12/18 12:21:37;;;;;;;;;27.00;25.00;;;;;;;;5234757;28;8860;-68
2022/12/18 12:24:09;;;;;;;;;14.00;12.80;;;;;;;;5265675;28;8789;-68
2022/12/18 12:27:17;;;;;;;;;66.20;50.80;;;;;;;;5247317;28;8799;-68
2022/12/18 12:29:54;;;;;;;;;45.60;39.00;;;;;;;;5250119;28;8798;-66
2022/12/18 12:33:02;;;;;;;;;29.80;24.00;;;;;;;;5269302;28;8887;-67
2022/12/18 12:35:48;;;;;;;;;15.40;15.40;;;;;;;;5251731;28;8823;-67
2022/12/18 12:38:43;;;;;;;;;36.40;33.60;;;;;;;;5251376;28;8856;-67
2022/12/18 12:44:09;;;;;;;;;17.20;16.00;;;;;;;;5248426;28;9518;-67
2022/12/18 12:46:43;;;;;;;;;49.20;39.20;;;;;;;;5249296;28;8781;-67
2022/12/18 12:49:17;;;;;;;;;68.40;51.40;;;;;;;;5249263;28;8806;-67
2022/12/18 12:52:12;;;;;;;;;35.60;31.80;;;;;;;;5248339;28;8833;-67
2022/12/18 12:54:43;;;;;;;;;52.40;45.60;;;;;;;;5230718;28;8763;-66
2022/12/18 12:57:23;;;;;;;;;27.80;27.20;;;;;;;;5246718;28;8811;-66
2022/12/18 13:00:03;;;;;;;;;26.40;23.80;;;;;;;;5247197;28;8840;-66
2022/12/18 13:02:53;;;;;;;;;19.80;18.60;;;;;;;;5247072;28;8775;-67
2022/12/18 13:05:35;;;;;;;;;24.80;22.80;;;;;;;;5247825;28;8823;-67
2022/12/18 13:08:10;;;;;;;;;27.40;25.80;;;;;;;;5266739;28;8826;-68
2022/12/18 13:10:42;;;;;;;;;21.20;20.20;;;;;;;;5258655;28;8795;-68
2022/12/18 13:13:47;;;;;;;;;11.80;11.80;;;;;;;;5236351;28;8827;-69
2022/12/18 13:16:20;;;;;;;;;8.20;7.40;;;;;;;;5266431;28;8792;-67
2022/12/18 13:18:57;;;;;;;;;23.00;21.00;;;;;;;;5266720;28;9662;-67
2022/12/18 13:21:30;;;;;;;;;13.20;13.20;;;;;;;;5268106;28;8793;-67
2022/12/18 13:24:23;;;;;;;;;27.20;27.20;;;;;;;;5249758;28;8819;-67
2022/12/18 13:26:54;;;;;;;;;18.40;17.60;;;;;;;;5264479;28;8805;-68
2022/12/18 13:29:43;;;;;;;;;29.80;29.00;;;;;;;;5266682;28;8796;-69
2022/12/18 13:32:21;;;;;;;;;16.40;16.00;;;;;;;;5229849;28;8817;-68
2022/12/18 13:35:12;;;;;;;;;12.00;10.00;;;;;;;;5246284;28;8787;-68
2022/12/18 13:37:44;;;;;;;;;22.80;22.40;;;;;;;;5246834;28;8855;-68
2022/12/18 13:40:39;;;;;;;;;24.00;24.00;;;;;;;;5247765;28;8883;-67
2022/12/18 13:43:19;;;;;;;;;23.20;18.60;;;;;;;;5245853;28;8790;-67
2022/12/18 13:46:24;;;;;;;;;42.40;42.00;;;;;;;;5260092;28;8785;-69
2022/12/18 13:48:55;;;;;;;;;32.60;25.00;;;;;;;;5222994;28;8772;-67
2022/12/18 13:51:27;;;;;;;;;28.40;26.80;;;;;;;;5264448;28;8819;-67
2022/12/18 13:53:59;;;;;;;;;12.40;12.40;;;;;;;;5250505;28;8931;-68
2022/12/18 13:56:31;;;;;;;;;13.00;12.20;;;;;;;;5235017;28;8791;-67
2022/12/18 13:59:11;;;;;;;;;28.00;27.00;;;;;;;;5267347;28;8823;-68
2022/12/18 14:01:53;;;;;;;;;15.80;15.60;;;;;;;;5250032;28;8794;-66
2022/12/18 14:04:26;;;;;;;;;10.80;10.80;;;;;;;;5265297;28;8800;-68
2022/12/18 14:07:09;;;;;;;;;9.60;8.60;;;;;;;;5246106;28;8775;-68
2022/12/18 14:09:55;;;;;;;;;;;;;;;;;;;;;
2022/12/18 14:15:47;;;;;;;;;17.60;17.60;;;;;;;;5266566;28;8789;-69
2022/12/18 14:18:24;;;;;;;;;16.00;16.00;;;;;;;;5267621;28;8809;-67
2022/12/18 14:20:57;;;;;;;;;4.40;3.80;;;;;;;;5264813;28;8795;-67
2022/12/18 14:23:30;;;;;;;;;18.40;16.80;;;;;;;;5260415;28;8848;-67
2022/12/18 14:26:02;;;;;;;;;32.40;28.60;;;;;;;;5255999;28;8812;-69
2022/12/18 14:28:43;;;;;;;;;32.40;27.80;;;;;;;;5267747;28;8796;-68
2022/12/18 14:31:18;;;;;;;;;15.20;14.80;;;;;;;;5266802;28;8789;-69
2022/12/18 14:33:49;;;;;;;;;13.80;13.00;;;;;;;;5249647;28;8780;-69
2022/12/18 14:36:22;;;;;;;;;12.00;12.00;;;;;;;;5249252;28;8772;-68
2022/12/18 14:38:54;;;;;;;;;9.40;9.40;;;;;;;;5265831;28;9660;-68
2022/12/18 14:41:25;;;;;;;;;19.80;19.80;;;;;;;;5265789;28;8977;-69
2022/12/18 14:44:04;;;;;;;;;7.60;7.60;;;;;;;;5266453;28;8761;-71
2022/12/18 14:46:59;;;;;;;;;20.80;20.80;;;;;;;;5246209;28;8825;-69
2022/12/18 14:49:34;;;;;;;;;17.80;17.80;;;;;;;;5246324;28;8802;-66
2022/12/18 14:52:06;;;;;;;;;20.00;18.80;;;;;;;;5228287;28;8954;-68
2022/12/18 14:54:37;;;;;;;;;12.20;12.20;;;;;;;;5212057;28;8799;-68
2022/12/18 14:57:24;;;;;;;;;20.80;20.20;;;;;;;;5228003;28;8821;-68
2022/12/18 15:00:04;;;;;;;;;9.60;9.00;;;;;;;;5245982;28;8814;-67
2022/12/18 15:02:35;;;;;;;;;12.60;12.20;;;;;;;;5246407;28;8830;-67
2022/12/18 15:05:12;;;;;;;;;6.40;6.20;;;;;;;;5245024;28;9553;-68
2022/12/18 15:07:51;;;;;;;;;6.80;6.80;;;;;;;;5253903;28;8821;-69
2022/12/18 15:10:24;;;;;;;;;12.20;11.60;;;;;;;;5245968;28;9535;-68
2022/12/18 15:12:55;;;;;;;;;13.40;12.60;;;;;;;;5241563;28;8925;-67
2022/12/18 15:15:39;;;;;;;;;12.80;12.00;;;;;;;;5244315;28;8795;-68
2022/12/18 15:18:10;;;;;;;;;12.40;12.40;;;;;;;;5242946;28;8965;-67
2022/12/18 15:20:48;;;;;;;;;9.80;9.80;;;;;;;;5243491;28;8814;-67
2022/12/18 15:23:19;;;;;;;;;17.20;17.20;;;;;;;;5247357;28;9350;-66
2022/12/18 15:25:57;;;;;;;;;6.75;6.75;;;;;;;;5242301;28;8799;-67
2022/12/18 15:28:39;;;;;;;;;4.00;4.00;;;;;;;;5226538;28;9725;-67
2022/12/18 15:31:34;;;;;;;;;10.80;9.80;;;;;;;;5242519;28;8815;-67
2022/12/18 15:34:10;;;;;;;;;16.40;16.00;;;;;;;;5244454;28;8921;-67
2022/12/18 15:36:41;;;;;;;;;14.20;13.20;;;;;;;;5219129;28;9538;-66
2022/12/18 15:39:13;;;;;;;;;9.80;9.00;;;;;;;;5246773;28;8943;-68
2022/12/18 15:43:33;;;;;;;;;15.00;14.00;;;;;;;;5247731;28;9562;-69
2022/12/18 15:44:35;;;;;;;;;11.60;11.60;;;;;;;;5243104;28;8799;-68
2022/12/18 15:47:11;;;;;;;;;13.00;13.00;;;;;;;;5248287;28;8999;-68